»·PEaware :: N915MM KLAS-KEGE

N915MM :: KLAS-KEGE

FLIGHT INFORMATION

Flight Status: Arrived
Operator: Privately registered:
United States
More flights under this callsign
Pilot: Tyler S. (27221)
Aircraft: SOCATA TBM-900
(TBM9)
More flights by this aircraft type
Origin: KLAS McCarran Intl
United States
Destination: KEGE Eagle Co Regl
United States
More flights between these airports :: More routes between these airports
Route: ++ MMM BCE HVE JNC RIL RLG
File this flight plan on PilotEdge
Remarks:
Altitude:
(Current/Filed)
27,000ft
Speed:
(Current/Filed)
310kts
Departed: 03-Apr-20 08:12 PM
Arrived: 03-Apr-20 09:39 PM
Distance/Time
Traveled:
445nm/1:26
Distance/Time
To Go:
Arrived

Flight Plot

Page will automatically refresh every two minutes.

Flight plan parsing failed; only flown route is shown


Map Options




Map Legend


Flown Route
Filed Route
Departure Airport
Arrival Airport
Navaid (VOR, NDB)
Fix

Horizontal Profiles

Position Reports

Time Latitude Longitude Heading Altitude Ground
Speed
03-Apr-20 19:19 36.081386 -115.171136 88 2184ft 0kts
03-Apr-20 19:20 36.081386 -115.171136 88 2184ft 0kts
03-Apr-20 19:21 36.080924 -115.170974 173 2184ft 2kts
03-Apr-20 19:22 36.080553 -115.170727 128 2184ft 0kts
03-Apr-20 19:23 36.080553 -115.170727 128 2184ft 0kts
03-Apr-20 19:24 36.080553 -115.170727 128 2184ft 0kts
03-Apr-20 19:25 36.080553 -115.170727 128 2184ft 0kts
03-Apr-20 19:26 36.080553 -115.170727 128 2184ft 0kts
03-Apr-20 19:27 36.080553 -115.170727 128 2184ft 0kts
03-Apr-20 19:28 36.080553 -115.170727 128 2184ft 0kts
03-Apr-20 19:29 36.080553 -115.170727 128 2184ft 0kts
03-Apr-20 19:30 36.080553 -115.170727 128 2184ft 0kts
03-Apr-20 19:31 36.080553 -115.170727 128 2184ft 0kts
03-Apr-20 19:32 36.080553 -115.170727 128 2184ft 0kts
03-Apr-20 19:33 36.080553 -115.170727 128 2184ft 0kts
03-Apr-20 19:34 36.080553 -115.170727 128 2184ft 0kts
03-Apr-20 19:35 36.080553 -115.170727 128 2184ft 0kts
03-Apr-20 19:36 36.080553 -115.170727 128 2184ft 0kts
03-Apr-20 19:37 36.080553 -115.170727 128 2184ft 0kts
03-Apr-20 19:38 36.080553 -115.170727 128 2184ft 0kts
03-Apr-20 19:39 36.080553 -115.170727 128 2184ft 0kts
03-Apr-20 19:40 36.080553 -115.170727 128 2184ft 0kts
03-Apr-20 19:41 36.080553 -115.170727 128 2184ft 0kts
03-Apr-20 19:42 36.080553 -115.170727 128 2184ft 0kts
03-Apr-20 19:43 36.080553 -115.170727 128 2184ft 0kts
03-Apr-20 19:44 36.080553 -115.170727 128 2184ft 0kts
03-Apr-20 19:45 36.080553 -115.170727 128 2184ft 0kts
03-Apr-20 19:46 36.080553 -115.170727 128 2184ft 0kts
03-Apr-20 19:47 36.080553 -115.170727 128 2184ft 0kts
03-Apr-20 19:48 36.080553 -115.170727 128 2184ft 0kts
03-Apr-20 19:49 36.080553 -115.170727 128 2184ft 0kts
03-Apr-20 19:50 36.080553 -115.170727 128 2184ft 0kts
03-Apr-20 19:51 36.080553 -115.170727 128 2184ft 0kts
03-Apr-20 19:52 36.080553 -115.170727 128 2184ft 0kts
03-Apr-20 19:53 36.080553 -115.170727 128 2184ft 0kts
03-Apr-20 19:54 36.080553 -115.170727 128 2184ft 0kts
03-Apr-20 19:55 36.080553 -115.170727 128 2184ft 0kts
03-Apr-20 19:56 36.080553 -115.170727 128 2184ft 0kts
03-Apr-20 19:57 36.080464 -115.170589 128 2184ft 2kts
03-Apr-20 19:58 36.079212 -115.170540 204 2184ft 5kts
03-Apr-20 19:59 36.078105 -115.170569 101 2184ft 0kts
03-Apr-20 20:00 36.078034 -115.170341 100 2184ft 0kts
03-Apr-20 20:01 36.078034 -115.170341 100 2184ft 0kts
03-Apr-20 20:02 36.078034 -115.170341 100 2184ft 0kts
03-Apr-20 20:03 36.078034 -115.170341 100 2184ft 0kts
03-Apr-20 20:04 36.078034 -115.170341 100 2184ft 0kts
03-Apr-20 20:05 36.078023 -115.169966 90 2184ft 0kts
03-Apr-20 20:06 36.078020 -115.169539 90 2184ft 4kts
03-Apr-20 20:07 36.078201 -115.168747 24 2184ft 0kts
03-Apr-20 20:08 36.078201 -115.168747 24 2184ft 0kts
03-Apr-20 20:09 36.078201 -115.168747 24 2184ft 0kts
03-Apr-20 20:10 36.078201 -115.168747 24 2184ft 0kts
03-Apr-20 20:11 36.085207 -115.164749 26 2210ft 114kts
03-Apr-20 20:12 36.112045 -115.132034 61 3836ft 160kts
03-Apr-20 20:13 36.134199 -115.081757 61 5832ft 172kts
03-Apr-20 20:14 36.157465 -115.029554 61 8055ft 178kts
03-Apr-20 20:15 36.181888 -114.975169 61 10191ft 186kts
03-Apr-20 20:16 36.212738 -114.923094 40 12230ft 193kts
03-Apr-20 20:17 36.253140 -114.876629 39 14280ft 203kts
03-Apr-20 20:18 36.295333 -114.828076 38 16227ft 213kts
03-Apr-20 20:19 36.339751 -114.776873 38 18027ft 225kts
03-Apr-20 20:20 36.386181 -114.723271 37 20148ft 231kts
03-Apr-20 20:21 36.433838 -114.668161 36 22246ft 238kts
03-Apr-20 20:22 36.482965 -114.611237 36 24300ft 247kts
03-Apr-20 20:23 36.533896 -114.552090 35 26323ft 255kts
03-Apr-20 20:24 36.590675 -114.486173 36 26898ft 305kts
03-Apr-20 20:25 36.657269 -114.408493 37 26882ft 332kts
03-Apr-20 20:26 36.726218 -114.327896 38 26870ft 340kts
03-Apr-20 20:27 36.788711 -114.237115 55 26872ft 348kts
03-Apr-20 20:28 36.838865 -114.132191 55 26892ft 349kts
03-Apr-20 20:29 36.888879 -114.027392 55 26916ft 348kts
03-Apr-20 20:30 36.938622 -113.922875 56 26927ft 348kts
03-Apr-20 20:31 36.988482 -113.817736 55 26927ft 346kts
03-Apr-20 20:32 37.037637 -113.713787 55 26928ft 346kts
03-Apr-20 20:33 37.086596 -113.609911 55 26929ft 346kts
03-Apr-20 20:34 37.135549 -113.505745 55 26930ft 346kts
03-Apr-20 20:35 37.185027 -113.400112 55 26934ft 345kts
03-Apr-20 20:36 37.233433 -113.296438 56 26930ft 345kts
03-Apr-20 20:37 37.281938 -113.192212 56 26934ft 344kts
03-Apr-20 20:38 37.331006 -113.086459 56 26935ft 344kts
03-Apr-20 20:39 37.380153 -112.980166 56 26949ft 344kts
03-Apr-20 20:40 37.428416 -112.875486 56 26982ft 344kts
03-Apr-20 20:41 37.476576 -112.770690 56 27010ft 345kts
03-Apr-20 20:42 37.524721 -112.665564 56 27011ft 345kts
03-Apr-20 20:43 37.572788 -112.560267 56 27012ft 345kts
03-Apr-20 20:44 37.620846 -112.454667 56 27012ft 346kts
03-Apr-20 20:45 37.668795 -112.348951 57 27013ft 346kts
03-Apr-20 20:46 37.717644 -112.242639 56 27007ft 345kts
03-Apr-20 20:47 37.767051 -112.135988 56 27008ft 345kts
03-Apr-20 20:48 37.816131 -112.029707 56 27003ft 345kts
03-Apr-20 20:49 37.865271 -111.922947 56 26991ft 345kts
03-Apr-20 20:50 37.914184 -111.816328 56 26982ft 345kts
03-Apr-20 20:51 37.963262 -111.709004 56 26983ft 345kts
03-Apr-20 20:52 38.011643 -111.602820 56 26984ft 346kts
03-Apr-20 20:53 38.061035 -111.494090 56 26984ft 347kts
03-Apr-20 20:54 38.110041 -111.385835 56 26986ft 349kts
03-Apr-20 20:55 38.158748 -111.277876 57 26979ft 350kts
03-Apr-20 20:56 38.208031 -111.168273 57 26980ft 350kts
03-Apr-20 20:58 38.257393 -111.058113 57 26981ft 352kts
03-Apr-20 20:59 38.307085 -110.946852 57 26980ft 354kts
03-Apr-20 21:00 38.356979 -110.834722 57 26973ft 356kts
03-Apr-20 21:01 38.407029 -110.721850 57 26966ft 357kts
03-Apr-20 21:02 38.450037 -110.604172 63 26967ft 360kts
03-Apr-20 21:03 38.491727 -110.483811 63 26968ft 361kts
03-Apr-20 21:04 38.533095 -110.363899 63 26969ft 362kts
03-Apr-20 21:05 38.574235 -110.244138 64 26961ft 362kts
03-Apr-20 21:06 38.615471 -110.123612 64 26961ft 362kts
03-Apr-20 21:07 38.655728 -110.005465 64 26958ft 362kts
03-Apr-20 21:08 38.696069 -109.886588 64 26956ft 364kts
03-Apr-20 21:09 38.736697 -109.766332 64 26957ft 366kts
03-Apr-20 21:10 38.777200 -109.646001 64 26958ft 367kts
03-Apr-20 21:11 38.817591 -109.525483 64 26960ft 368kts
03-Apr-20 21:12 38.858084 -109.404140 64 26961ft 369kts
03-Apr-20 21:13 38.898738 -109.281805 65 26955ft 369kts
03-Apr-20 21:14 38.939842 -109.157575 65 26015ft 366kts
03-Apr-20 21:15 38.980152 -109.035208 65 24999ft 364kts
03-Apr-20 21:15 39.013839 -108.932556 65 24152ft 363kts
03-Apr-20 21:17 39.061152 -108.788968 60 22969ft 361kts
03-Apr-20 21:18 39.111445 -108.675644 57 21987ft 359kts
03-Apr-20 21:18 39.153365 -108.580824 57 21151ft 358kts
03-Apr-20 21:19 39.204171 -108.465501 57 20151ft 356kts
03-Apr-20 21:21 39.261029 -108.335958 58 18988ft 337kts
03-Apr-20 21:21 39.299436 -108.248120 58 18079ft 318kts
03-Apr-20 21:22 39.343467 -108.147199 59 17028ft 309kts
03-Apr-20 21:23 39.382764 -108.045372 74 16041ft 308kts
03-Apr-20 21:24 39.408448 -107.936945 74 15018ft 300kts
03-Apr-20 21:25 39.432477 -107.834254 74 15000ft 290kts
03-Apr-20 21:26 39.456290 -107.732041 73 15002ft 294kts
03-Apr-20 21:27 39.480353 -107.628376 73 15002ft 295kts
03-Apr-20 21:28 39.504320 -107.524638 74 15001ft 295kts
03-Apr-20 21:29 39.528609 -107.419007 74 15003ft 296kts
03-Apr-20 21:30 39.552302 -107.315563 74 14255ft 287kts
03-Apr-20 21:31 39.575036 -107.215753 75 13219ft 280kts
03-Apr-20 21:32 39.592994 -107.124751 79 12989ft 240kts
03-Apr-20 21:33 39.608011 -107.040061 84 11736ft 223kts
03-Apr-20 21:34 39.615715 -106.959692 84 9126ft 219kts
03-Apr-20 21:35 39.622928 -106.892957 81 8049ft 132kts
03-Apr-20 21:36 39.647011 -106.881399 268 7360ft 111kts
03-Apr-20 21:37 39.642965 -106.914572 261 6548ft 45kts
03-Apr-20 21:38 39.641872 -106.913579 81 6548ft 16kts
03-Apr-20 21:39 39.641046 -106.909716 263 6548ft 3kts
03-Apr-20 21:40 39.641043 -106.909738 261 6548ft 0kts
03-Apr-20 21:41 39.641043 -106.909738 261 6548ft 0kts
03-Apr-20 21:42 39.641043 -106.909738 261 6548ft 0kts
03-Apr-20 21:43 39.641043 -106.909738 261 6548ft 0kts
03-Apr-20 21:44 39.641043 -106.909738 261 6548ft 0kts
03-Apr-20 21:45 39.641044 -106.909738 261 6548ft 0kts
03-Apr-20 21:46 39.641044 -106.909738 261 6548ft 0kts
03-Apr-20 21:47 39.641044 -106.909738 261 6548ft 0kts
03-Apr-20 21:48 39.641044 -106.909738 261 6548ft 0kts
03-Apr-20 21:49 39.641044 -106.909738 261 6548ft 0kts
03-Apr-20 21:50 39.641044 -106.909738 261 6548ft 0kts
03-Apr-20 21:51 39.641044 -106.909738 261 6548ft 0kts
03-Apr-20 21:52 39.641044 -106.909738 261 6548ft 0kts

Navigation Log

Ident Type
Flight plan parsing failed, navigation log unavailable